KVPZ/VPZ METAR and TAF weather

Enter ICAO airport designator
Station Type Date Time Source
KVPZ METAR 2019/08/18 08:56 UTC NOAA

KVPZ 180856Z AUTO 10003KT 10SM BKN055 20/18 A2987 RMK AO2 SLP111 T02000183 56012


Station Type Date Time Source
KVPZ Decoded METAR 2019/08/18 08:56 UTC NOAA

Station name not available
Aug 18, 2019 - 04:56 AM EDT / 2019.08.18 0856 UTC
Wind: from the E (100 degrees) at 3 MPH (3 KT):0
Visibility: 10 mile(s):0
Sky conditions: mostly cloudy
Temperature: 68.0 F (20.0 C)
Dew Point: 64.9 F (18.3 C)
Relative Humidity: 89%
Pressure (altimeter): 29.87 in. Hg (1011 hPa)
Pressure tendency: 0.04 inches (1.2 hPa) lower than three hours ago
ob: KVPZ 180856Z AUTO 10003KT 10SM BKN055 20/18 A2987 RMK AO2 SLP111 T02000183 56012
cycle: 9

Station Type Date Time Source
KVPZ TAF UTC NOAA

Error!

Example: see airport list